地図

経路データ

SID SEASON NUMBER BASIN SUBBASIN NAME ISO_TIME NATURE LAT LON WMO_WIND WMO_PRES WMO_AGENCY TRACK_TYPE DIST2LAND LANDFALL IFLAG USA_AGENCY USA_ATCF_ID USA_LAT USA_LON USA_RECORD USA_STATUS USA_WIND USA_PRES USA_SSHS USA_R34_NE USA_R34_SE USA_R34_SW USA_R34_NW USA_R50_NE USA_R50_SE USA_R50_SW USA_R50_NW USA_R64_NE USA_R64_SE USA_R64_SW USA_R64_NW USA_POCI USA_ROCI USA_RMW USA_EYE TOKYO_LAT TOKYO_LON TOKYO_GRADE TOKYO_WIND TOKYO_PRES TOKYO_R50_DIR TOKYO_R50_LONG TOKYO_R50_SHORT TOKYO_R30_DIR TOKYO_R30_LONG TOKYO_R30_SHORT TOKYO_LAND CMA_LAT CMA_LON CMA_CAT CMA_WIND CMA_PRES HKO_LAT HKO_LON HKO_CAT HKO_WIND HKO_PRES NEWDELHI_LAT NEWDELHI_LON NEWDELHI_GRADE NEWDELHI_WIND NEWDELHI_PRES NEWDELHI_CI NEWDELHI_DP NEWDELHI_POCI REUNION_LAT REUNION_LON REUNION_TYPE REUNION_WIND REUNION_PRES REUNION_TNUM REUNION_CI REUNION_RMW REUNION_R34_NE REUNION_R34_SE REUNION_R34_SW REUNION_R34_NW REUNION_R50_NE REUNION_R50_SE REUNION_R50_SW REUNION_R50_NW REUNION_R64_NE REUNION_R64_SE REUNION_R64_SW REUNION_R64_NW BOM_LAT BOM_LON BOM_TYPE BOM_WIND BOM_PRES BOM_TNUM BOM_CI BOM_RMW BOM_R34_NE BOM_R34_SE BOM_R34_SW BOM_R34_NW BOM_R50_NE BOM_R50_SE BOM_R50_SW BOM_R50_NW BOM_R64_NE BOM_R64_SE BOM_R64_SW BOM_R64_NW BOM_ROCI BOM_POCI BOM_EYE BOM_POS_METHOD BOM_PRES_METHOD NADI_LAT NADI_LON NADI_CAT NADI_WIND NADI_PRES WELLINGTON_LAT WELLINGTON_LON WELLINGTON_WIND WELLINGTON_PRES DS824_LAT DS824_LON DS824_STAGE DS824_WIND DS824_PRES TD9636_LAT TD9636_LON TD9636_STAGE TD9636_WIND TD9636_PRES TD9635_LAT TD9635_LON TD9635_WIND TD9635_PRES TD9635_ROCI NEUMANN_LAT NEUMANN_LON NEUMANN_CLASS NEUMANN_WIND NEUMANN_PRES MLC_LAT MLC_LON MLC_CLASS MLC_WIND MLC_PRES USA_GUST BOM_GUST BOM_GUST_PER REUNION_GUST REUNION_GUST_PER USA_SEAHGT USA_SEARAD_NE USA_SEARAD_SE USA_SEARAD_SW USA_SEARAD_NW STORM_SPEED STORM_DIR
1902196N21089 1902 24 NI BB NOT_NAMED 1902-07-15 00:00:00 TS 20.6000 88.8000 main 112 90 _________O____ -1 20.6000 88.8000 TC 34 5 308
1902196N21089 1902 24 NI BB NOT_NAMED 1902-07-15 03:00:00 TS 20.7633 88.5784 main 90 67 _________PO___ -1 20.8450 88.4676 TC 33 20.6000 88.8000 2 7 307
1902196N21089 1902 24 NI BB NOT_NAMED 1902-07-15 06:00:00 TS 21.0137 88.2090 main 67 44 _________OP___ -1 21.1000 88.1000 TC 32 20.8843 88.3724 2 9 305
1902196N21089 1902 24 NI BB NOT_NAMED 1902-07-15 09:00:00 TS 21.2748 87.8051 main 44 15 _________PP___ -1 21.3651 87.6851 TC 31 21.1543 87.9650 2 9 304
1902196N21089 1902 24 NI BB NOT_NAMED 1902-07-15 12:00:00 TS 21.4986 87.4500 main 15 0 _________OP___ -1 21.6000 87.3000 TC 30 21.3972 87.6001 2 7 304
1902196N21089 1902 24 NI BB NOT_NAMED 1902-07-15 15:00:00 TS 21.6824 87.1636 main 0 0 _________PO___ -1 21.7648 87.0273 TC 30 21.6000 87.3000 1 6 305
1902196N21089 1902 24 NI BB NOT_NAMED 1902-07-15 18:00:00 TS 21.8285 86.9367 main 0 0 _________OP___ -1 21.9000 86.8000 TC 30 21.7571 87.0733 1 5 305
1902196N21089 1902 24 NI BB NOT_NAMED 1902-07-15 21:00:00 TS 21.9588 86.7373 main 0 0 _________PP___ -1 22.0271 86.6020 TC 30 21.8904 86.8725 1 5 303
1902196N21089 1902 24 NI BB NOT_NAMED 1902-07-16 00:00:00 TS 22.1143 86.4678 main 0 0 _________OP___ -1 22.2000 86.3000 TC 30 22.0286 86.6356 1 8 300
1902196N21089 1902 24 NI BB NOT_NAMED 1902-07-16 03:00:00 TS 22.3426 86.0301 main 0 0 _________PO___ -1 22.4852 85.7603 TC 30 22.2000 86.3000 1 11 298
1902196N21089 1902 24 NI BB NOT_NAMED 1902-07-16 06:00:00 TS 22.6241 85.4379 main 0 0 _________OP___ -1 22.8000 85.1000 TC 30 22.4482 85.7757 1 13 296
1902196N21089 1902 24 NI BB NOT_NAMED 1902-07-16 09:00:00 TS 22.8969 84.7993 main 0 0 _________PP___ -1 23.0649 84.4499 TC 30 22.7290 85.1488 1 13 294
1902196N21089 1902 24 NI BB NOT_NAMED 1902-07-16 12:00:00 TS 23.1600 84.1362 main 0 0 _________OP___ -1 23.3000 83.8000 TC 30 23.0200 84.4724 1 13 293
1902196N21089 1902 24 NI BB NOT_NAMED 1902-07-16 15:00:00 TS 23.3999 83.4923 main 0 0 _________PO___ -1 23.4998 83.1846 TC 30 23.3000 83.8000 1 12 292
1902196N21089 1902 24 NI BB NOT_NAMED 1902-07-16 18:00:00 TS 23.6258 82.8829 main 0 0 _________OP___ -1 23.7000 82.6000 TC 30 23.5516 83.1659 1 12 293
1902196N21089 1902 24 NI BB NOT_NAMED 1902-07-16 21:00:00 TS 23.8727 82.2789 main 0 0 _________PP___ -1 23.9576 82.0052 TC 30 23.7878 82.5526 1 11 295
1902196N21089 1902 24 NI BB NOT_NAMED 1902-07-17 00:00:00 TS 24.1025 81.7440 main 0 0 _________OP___ -1 24.2000 81.5000 TC 30 24.0050 81.9879 1 10 295
1902196N21089 1902 24 NI BB NOT_NAMED 1902-07-17 03:00:00 TS 24.2823 81.3311 main 0 0 _________PO___ -1 24.3647 81.1621 TC 30 24.2000 81.5000 1 8 296
1902196N21089 1902 24 NI BB NOT_NAMED 1902-07-17 06:00:00 TS 24.4332 81.0019 main 0 0 _________OP___ -1 24.5000 80.9000 TC 30 24.3664 81.1037 1 7 297
1902196N21089 1902 24 NI BB NOT_NAMED 1902-07-17 09:00:00 TS 24.5819 80.6857 main 0 0 _________PP___ -1 24.6500 80.5850 TC 30 24.5137 80.7864 1 6 299
1902196N21089 1902 24 NI BB NOT_NAMED 1902-07-17 12:00:00 TS 24.7271 80.4129 main 0 0 _________OP___ -1 24.8000 80.3000 TC 30 24.6543 80.5258 1 5 303
1902196N21089 1902 24 NI BB NOT_NAMED 1902-07-17 15:00:00 TS 24.8712 80.1924 main 0 0 _________PO___ -1 24.9424 80.0849 TC 30 24.8000 80.3000 1 5 308
1902196N21089 1902 24 NI BB NOT_NAMED 1902-07-17 18:00:00 TS 25.0338 79.9795 main 0 0 _________OP___ -1 25.1000 79.9000 TC 30 24.9676 80.0589 1 5 312
1902196N21089 1902 24 NI BB NOT_NAMED 1902-07-17 21:00:00 TS 25.2211 79.7699 main 0 0 _________PP___ -1 25.3000 79.6925 TC 30 25.1423 79.8473 1 5 316
1902196N21089 1902 24 NI BB NOT_NAMED 1902-07-18 00:00:00 TS 25.4104 79.5810 main 0 0 _________OP___ -1 25.5000 79.5000 TC 30 25.3208 79.6621 1 5 318
1902196N21089 1902 24 NI BB NOT_NAMED 1902-07-18 03:00:00 TS 25.5750 79.4174 main 0 0 _________PO___ -1 25.6500 79.3349 TC 30 25.5000 79.5000 1 4 319
1902196N21089 1902 24 NI BB NOT_NAMED 1902-07-18 06:00:00 TS 25.7354 79.2705 main 0 0 _________OP___ -1 25.8000 79.2000 TC 30 25.6708 79.3411 1 4 325
1902196N21089 1902 24 NI BB NOT_NAMED 1902-07-18 09:00:00 TS 25.9174 79.1449 main 0 0 _________PP___ -1 25.9925 79.0850 TC 30 25.8424 79.2048 1 4 332
1902196N21089 1902 24 NI BB NOT_NAMED 1902-07-18 12:00:00 TS 26.1089 79.0456 main 0 0 _________OP___ -1 26.2000 79.0000 TC 30 26.0178 79.0912 1 4 338
1902196N21089 1902 24 NI BB NOT_NAMED 1902-07-18 15:00:00 TS 26.3000 78.9712 main 0 0 _________PO___ -1 26.4000 78.9424 TC 30 26.2000 79.0000 1 4 344
1902196N21089 1902 24 NI BB NOT_NAMED 1902-07-18 18:00:00 TS 26.4807 78.9174 main 0 0 _________OP___ -1 26.6000 78.9000 TC 30 26.3913 78.9304 1 4 347
1902196N21089 1902 24 NI BB NOT_NAMED 1902-07-18 21:00:00 TS 26.6740 78.8676 main 0 0 _________PP___ -1 26.8000 78.8526 TC 30 26.5900 78.8776 1 4 348
1902196N21089 1902 24 NI BB NOT_NAMED 1902-07-19 00:00:00 TS 26.8625 78.8240 main 0 0 _________OP___ -1 27.0000 78.8000 TC 30 26.7938 78.8360 1 3 350
1902196N21089 1902 24 NI BB NOT_NAMED 1902-07-19 03:00:00 NR 27.0000 78.8000 main 0 __________O___ -1 TC 27.0000 78.8000 1 3 0

IBTrACS Databaseについて

本データベースは、米国NOAAが公開する1842年以降の世界の熱帯低気圧のベストトラックデータアーカイブInternational Best Track Archive for Climate Stewardship (IBTrACS)を、ウェブで閲覧しやすい形式に変換したものです。

最終更新日:2021-10-21